createdAt,value
2019-04-04T00:01:26.802Z,6.60
2019-04-04T00:03:55.601Z,6.60
2019-04-04T00:06:26.694Z,6.60
2019-04-04T00:08:56.088Z,6.50
2019-04-04T00:11:24.884Z,6.40
2019-04-04T00:13:53.698Z,6.40
2019-04-04T00:16:22.662Z,6.40
2019-04-04T00:18:51.631Z,6.40
2019-04-04T00:21:20.442Z,6.40
2019-04-04T00:23:49.248Z,6.40
2019-04-04T00:26:18.097Z,6.40
2019-04-04T00:28:47.005Z,6.40
2019-04-04T00:31:18.846Z,6.30
2019-04-04T00:33:46.375Z,6.30
2019-04-04T00:36:15.141Z,6.30
2019-04-04T00:38:44.016Z,6.30
2019-04-04T00:41:12.947Z,6.20
2019-04-04T00:43:42.426Z,6.20
2019-04-04T00:46:11.229Z,6.20
2019-04-04T00:48:40.200Z,6.20
2019-04-04T00:51:09.004Z,6.20
2019-04-04T00:53:37.808Z,6.10
2019-04-04T00:56:06.562Z,6.10
2019-04-04T00:58:35.458Z,6.10
2019-04-04T01:01:05.770Z,6.10
2019-04-04T01:03:34.565Z,6.00
2019-04-04T01:06:03.732Z,6.00
2019-04-04T01:08:32.933Z,6.00
2019-04-04T01:11:01.710Z,5.90
2019-04-04T01:13:30.510Z,5.90
2019-04-04T01:16:38.990Z,5.90
2019-04-04T01:19:09.599Z,5.80
2019-04-04T01:21:38.822Z,5.80
2019-04-04T01:24:07.636Z,5.70
2019-04-04T01:26:36.436Z,5.70
2019-04-04T01:29:05.862Z,5.60
2019-04-04T01:31:34.833Z,5.60
2019-04-04T01:34:03.817Z,5.50
2019-04-04T01:36:33.020Z,5.60
2019-04-04T01:39:06.219Z,5.60
2019-04-04T01:41:36.417Z,5.60
2019-04-04T01:44:05.825Z,5.60
2019-04-04T01:46:34.819Z,5.60
2019-04-04T01:49:03.947Z,5.60
2019-04-04T01:51:32.744Z,5.60
2019-04-04T01:54:01.737Z,5.60
2019-04-04T01:56:30.790Z,5.60
2019-04-04T01:59:04.026Z,5.60
2019-04-04T02:01:32.907Z,5.60
2019-04-04T02:04:05.042Z,5.60
2019-04-04T02:06:33.833Z,5.60
2019-04-04T02:09:03.614Z,5.70
2019-04-04T02:11:32.530Z,5.70
2019-04-04T02:14:01.302Z,5.70
2019-04-04T02:16:30.063Z,5.70
2019-04-04T02:18:59.051Z,5.60
2019-04-04T02:21:28.798Z,5.70
2019-04-04T02:23:58.176Z,5.70
2019-04-04T02:26:31.331Z,5.60
2019-04-04T02:29:00.652Z,5.60
2019-04-04T02:31:33.459Z,5.60
2019-04-04T02:34:05.260Z,5.70
2019-04-04T02:36:32.855Z,5.60
2019-04-04T02:39:07.328Z,5.60
2019-04-04T02:41:36.604Z,5.60
2019-04-04T02:44:05.795Z,5.60
2019-04-04T02:46:34.614Z,5.60
2019-04-04T02:49:03.427Z,5.60
2019-04-04T02:51:32.218Z,5.60
2019-04-04T02:54:01.095Z,5.50
2019-04-04T02:56:29.853Z,5.50
2019-04-04T02:58:59.667Z,5.50
2019-04-04T03:01:31.599Z,5.50
2019-04-04T03:03:59.244Z,5.50
2019-04-04T03:06:28.051Z,5.50
2019-04-04T03:08:56.990Z,5.50
2019-04-04T03:11:25.802Z,5.50
2019-04-04T03:13:54.682Z,5.40
2019-04-04T03:16:23.651Z,5.30
2019-04-04T03:18:52.626Z,5.30
2019-04-04T03:21:23.396Z,5.30
2019-04-04T03:23:51.951Z,5.30
2019-04-04T03:26:20.829Z,5.30
2019-04-04T03:28:49.955Z,5.30
2019-04-04T03:31:18.966Z,5.30
2019-04-04T03:33:47.776Z,5.30
2019-04-04T03:36:16.617Z,5.30
2019-04-04T03:38:47.134Z,5.30
2019-04-04T03:41:16.265Z,5.30
2019-04-04T03:43:48.146Z,5.30
2019-04-04T03:46:15.557Z,5.20
2019-04-04T03:48:44.424Z,5.20
2019-04-04T03:51:13.285Z,5.20
2019-04-04T03:53:49.311Z,5.20
2019-04-04T03:56:18.184Z,5.20
2019-04-04T03:58:47.167Z,5.20
2019-04-04T04:01:15.972Z,5.20
2019-04-04T04:03:44.748Z,5.30
2019-04-04T04:06:13.644Z,5.30
2019-04-04T04:08:42.553Z,5.20
2019-04-04T04:11:11.427Z,5.20
2019-04-04T04:13:40.225Z,5.10
2019-04-04T04:16:09.009Z,5.10
2019-04-04T04:18:37.860Z,5.10
2019-04-04T04:21:09.754Z,5.10
2019-04-04T04:23:37.145Z,5.10
2019-04-04T04:26:09.381Z,5.10
2019-04-04T04:28:36.714Z,5.10
2019-04-04T04:31:05.523Z,5.10
2019-04-04T04:33:34.291Z,5.10
2019-04-04T04:36:03.121Z,5.10
2019-04-04T04:38:32.073Z,5.00
2019-04-04T04:41:00.867Z,5.00
2019-04-04T04:43:32.370Z,5.00
2019-04-04T04:46:00.227Z,5.10
2019-04-04T04:48:31.831Z,5.00
2019-04-04T04:50:59.537Z,5.00
2019-04-04T04:53:28.307Z,5.00
2019-04-04T04:55:59.621Z,4.90
2019-04-04T04:58:27.666Z,5.00
2019-04-04T05:00:56.626Z,5.00
2019-04-04T05:03:25.393Z,5.00
2019-04-04T05:05:54.188Z,5.00
2019-04-04T05:08:22.987Z,5.00
2019-04-04T05:10:52.158Z,4.90
2019-04-04T05:13:20.953Z,4.90
2019-04-04T05:15:50.853Z,4.90
2019-04-04T05:18:19.640Z,4.90
2019-04-04T05:20:48.716Z,4.90
2019-04-04T05:23:17.555Z,4.90
2019-04-04T05:25:53.611Z,4.90
2019-04-04T05:28:17.052Z,5.00
2019-04-04T05:30:47.304Z,5.00
2019-04-04T05:33:16.373Z,5.00
2019-04-04T05:35:45.306Z,5.00
2019-04-04T05:38:14.223Z,5.00
2019-04-04T05:40:43.057Z,5.00
2019-04-04T05:43:14.758Z,5.00
2019-04-04T05:45:44.956Z,5.10
2019-04-04T05:48:13.080Z,5.10
2019-04-04T05:50:43.656Z,5.20
2019-04-04T05:53:12.412Z,5.20
2019-04-04T05:55:41.863Z,5.30
2019-04-04T05:58:11.279Z,5.20
2019-04-04T06:00:41.787Z,5.20
2019-04-04T06:03:10.571Z,5.10
2019-04-04T06:05:39.372Z,5.10
2019-04-04T06:08:08.816Z,5.00
2019-04-04T06:10:37.738Z,5.00
2019-04-04T06:13:06.519Z,5.10
2019-04-04T06:15:35.343Z,5.10
2019-04-04T06:18:04.303Z,5.20
2019-04-04T06:20:33.077Z,5.30
2019-04-04T06:23:01.853Z,5.30
2019-04-04T06:25:34.371Z,5.40
2019-04-04T06:28:01.325Z,5.40
2019-04-04T06:30:42.253Z,5.40
2019-04-04T06:33:03.885Z,5.50
2019-04-04T06:35:31.239Z,5.50
2019-04-04T06:38:00.096Z,5.50
2019-04-04T06:40:30.282Z,5.50
2019-04-04T06:42:59.797Z,5.60
2019-04-04T06:45:29.800Z,5.60
2019-04-04T06:51:26.479Z,5.60
2019-04-04T06:53:55.303Z,5.60
2019-04-04T06:56:24.084Z,5.60
2019-04-04T07:02:21.994Z,5.70
2019-04-04T07:08:30.707Z,5.80
2019-04-04T07:14:45.476Z,5.90
2019-04-04T07:20:50.439Z,5.80
2019-04-04T07:26:47.165Z,5.80
2019-04-04T07:32:43.471Z,6.00
2019-04-04T07:38:39.797Z,6.10
2019-04-04T07:44:36.997Z,6.20
2019-04-04T07:50:33.656Z,6.10
2019-04-04T07:56:29.757Z,6.20
2019-04-04T08:02:27.054Z,6.30
2019-04-04T08:08:24.327Z,6.50
2019-04-04T08:10:53.089Z,6.50
2019-04-04T08:13:21.929Z,6.60
2019-04-04T08:19:18.223Z,6.60
2019-04-04T08:21:47.006Z,6.60
2019-04-04T08:24:15.822Z,6.70
2019-04-04T08:33:20.507Z,6.80
2019-04-04T08:38:53.354Z,6.90
2019-04-04T08:45:02.249Z,7.00
2019-04-04T08:51:11.125Z,7.00
2019-04-04T08:57:19.792Z,6.90
2019-04-04T09:03:16.112Z,7.00
2019-04-04T09:05:57.054Z,7.00
2019-04-04T09:08:25.856Z,7.00
2019-04-04T09:14:34.487Z,7.00
2019-04-04T09:20:43.347Z,7.10
2019-04-04T09:29:57.945Z,7.20
2019-04-04T09:39:26.049Z,7.20
2019-04-04T09:45:24.222Z,7.40
2019-04-04T09:51:21.939Z,7.70
2019-04-04T09:57:19.636Z,7.80
2019-04-04T10:03:04.748Z,7.90
2019-04-04T10:09:16.024Z,8.00
2019-04-04T10:11:44.670Z,8.10
2019-04-04T10:14:13.435Z,8.10
2019-04-04T10:20:10.992Z,8.20
2019-04-04T10:26:07.272Z,8.30
2019-04-04T10:31:39.810Z,8.40
2019-04-04T10:41:05.413Z,8.60
2019-04-04T10:47:21.364Z,8.70
2019-04-04T10:53:20.278Z,8.90
2019-04-04T10:59:18.191Z,9.00
2019-04-04T11:05:15.678Z,9.00
2019-04-04T11:11:12.009Z,9.10
2019-04-04T11:13:41.145Z,9.20
2019-04-04T11:16:10.201Z,9.20
2019-04-04T11:22:06.536Z,9.30
2019-04-04T11:28:15.562Z,9.40
2019-04-04T11:34:24.472Z,9.50
2019-04-04T11:43:38.382Z,9.60
2019-04-04T11:49:37.452Z,9.70
2019-04-04T11:55:35.999Z,9.80
2019-04-04T12:01:36.347Z,9.80
2019-04-04T12:07:34.874Z,9.90
2019-04-04T12:13:34.496Z,10.00
2019-04-04T12:19:34.096Z,10.20
2019-04-04T12:25:16.577Z,10.30
2019-04-04T12:31:16.044Z,10.30
2019-04-04T12:37:15.593Z,10.20
2019-04-04T12:43:14.687Z,10.10
